EmailTwitter


Observations de surface / Québec / CYMX

Régions: Québec | Canada | États-Unis | Europe | France | UK | Ailleurs
Station
Affichage
Infos & localisation pour CYMX | Aide pour décoder les METARs

Observations prises le 2017-08-16 à 21H00 UTC à MONTREAL MIRABEL, QB (CYMX)

Etat du ciel: ciel variable.

Température: 21.0 Celsius

Point de rosée: 8.0 Celsius

Humidité relative: 43%

Vents: Ouest-nord-ouest à 9 km/h ou 5 noeuds.

Pression au niveau moyen de la mer: 101.63 kilopascals.

Calage altimétrique: 101.62 kilopascals ou 30.01 pouces de mercure.

Visibilité horizontale: 45.00 milles terrestres ou 72.00 kilomètres.

Observation METAR:

CYMX 162100Z 29005KT 240V350 45SM FEW060 SCT280 21/08 A3001 RMK CF1CI4 CF TR

SLP163 DENSITY ALT 1000FT=